Time;durP1;ratioP1;P1;durP2;ratioP2;P2;SDS_P1;SDS_P2;PMS_P1;PMS_P2;Temp;Humidity;BMP_temperature;BMP_pressure;BME280_temperature;BME280_humidity;BME280_pressure;Samples;Min_cycle;Max_cycle;Signal;HPM_P1;HPM_P2
2022/01/24 00:01:38;;;;;;;0.40;0.20;;;4.90;99.90;;;;;;5066790;28;20183;-81
2022/01/24 00:04:05;;;;;;;0.10;0.10;;;4.90;99.90;;;;;;5065954;28;20184;-81
2022/01/24 00:06:32;;;;;;;0.40;0.40;;;4.90;99.90;;;;;;5067796;28;20196;-80
2022/01/24 00:08:58;;;;;;;0.10;0.10;;;4.90;99.90;;;;;;5064245;28;20201;-80
2022/01/24 00:11:30;;;;;;;0.30;0.30;;;5.00;99.90;;;;;;5066709;28;20646;-80
2022/01/24 00:27:14;;;;;;;0.23;0.23;;;5.20;99.90;;;;;;5066613;28;20182;-80
2022/01/24 00:29:39;;;;;;;0.43;0.43;;;5.20;99.90;;;;;;5064684;28;20204;-81
2022/01/24 00:32:05;;;;;;;0.63;0.10;;;5.10;99.90;;;;;;5064367;28;20194;-80
2022/01/24 00:34:32;;;;;;;0.20;0.20;;;5.20;99.90;;;;;;5064245;28;20646;-80
2022/01/24 00:36:57;;;;;;;0.13;0.13;;;5.10;99.90;;;;;;5066064;28;20179;-80
2022/01/24 00:39:24;;;;;;;0.30;0.30;;;5.20;99.90;;;;;;5064264;28;20204;-80
2022/01/24 00:44:50;;;;;;;0.53;0.20;;;5.20;99.90;;;;;;5066200;28;20195;-80
2022/01/24 00:47:27;;;;;;;0.20;0.20;;;5.30;99.90;;;;;;5066487;28;20189;-80
2022/01/24 00:52:59;;;;;;;0.13;0.13;;;5.30;99.90;;;;;;5065922;28;20824;-80
2022/01/24 00:55:23;;;;;;;0.10;0.10;;;5.10;99.90;;;;;;5065098;28;20198;-80
2022/01/24 00:57:48;;;;;;;0.53;0.40;;;5.10;99.90;;;;;;5064713;28;20212;-82
2022/01/24 01:00:14;;;;;;;0.23;0.23;;;5.10;99.90;;;;;;5064428;28;20271;-81
2022/01/24 01:02:41;;;;;;;0.47;0.20;;;5.00;99.90;;;;;;5064987;28;20229;-80
2022/01/24 01:06:04;;;;;;;0.13;0.13;;;5.00;99.90;;;;;;5066950;28;20234;-80
2022/01/24 01:18:04;;;;;;;0.00;0.00;;;5.00;99.90;;;;;;5061985;28;20577;-80
2022/01/24 01:18:58;;;;;;;0.20;0.20;;;4.90;99.90;;;;;;5066783;28;20574;-80
2022/01/24 01:21:24;;;;;;;0.10;0.10;;;4.90;99.90;;;;;;5062368;28;20188;-80
2022/01/24 01:23:55;;;;;;;0.30;0.30;;;5.00;99.90;;;;;;5064702;28;20637;-80
2022/01/24 01:26:43;;;;;;;0.10;0.10;;;5.00;99.90;;;;;;5064483;28;20196;-82
2022/01/24 01:29:23;;;;;;;0.73;0.73;;;4.90;99.90;;;;;;5064863;28;20209;-80
2022/01/24 01:32:01;;;;;;;0.07;0.07;;;4.90;99.90;;;;;;5064230;28;20175;-81
2022/01/24 01:34:54;;;;;;;0.10;0.10;;;4.90;99.90;;;;;;5065187;28;20644;-80
2022/01/24 01:40:24;;;;;;;0.33;0.20;;;5.20;99.90;;;;;;5067723;28;20326;-81
2022/01/24 01:56:05;;;;;;;0.10;0.10;;;5.10;99.90;;;;;;5066541;28;20831;-80
2022/01/24 01:58:30;;;;;;;0.20;0.20;;;5.10;99.90;;;;;;5065884;28;20200;-81
2022/01/24 02:00:58;;;;;;;0.20;0.20;;;5.10;99.90;;;;;;5065919;28;20184;-80
2022/01/24 02:03:25;;;;;;;0.63;0.33;;;5.10;99.90;;;;;;5064512;28;20553;-80
2022/01/24 02:05:51;;;;;;;0.10;0.10;;;5.10;99.90;;;;;;5063801;28;20216;-80
2022/01/24 02:08:18;;;;;;;0.10;0.10;;;5.10;99.90;;;;;;5064610;28;20181;-80
2022/01/24 02:10:44;;;;;;;0.10;0.10;;;5.00;99.90;;;;;;5064660;28;20538;-80
2022/01/24 02:13:11;;;;;;;0.10;0.10;;;5.10;99.90;;;;;;5064732;28;20174;-80
2022/01/24 02:19:11;;;;;;;0.40;0.40;;;5.20;99.90;;;;;;5065080;28;20669;-80
2022/01/24 02:23:41;;;;;;;0.33;0.20;;;5.40;99.90;;;;;;5066985;28;20186;-80
2022/01/24 02:26:16;;;;;;;0.00;0.00;;;5.30;99.90;;;;;;5066394;28;20200;-81
2022/01/24 02:28:54;;;;;;;0.03;0.03;;;5.40;99.90;;;;;;5068323;28;20186;-82
2022/01/24 02:34:01;;;;;;;0.10;0.10;;;5.50;99.90;;;;;;5068425;28;20538;-81
2022/01/24 02:36:26;;;;;;;0.07;0.07;;;5.50;99.90;;;;;;5067437;28;20177;-81
2022/01/24 02:39:07;;;;;;;0.13;0.13;;;5.30;99.90;;;;;;5065496;28;20548;-81
2022/01/24 02:49:28;;;;;;;0.10;0.10;;;5.20;99.90;;;;;;5067910;28;20196;-80
2022/01/24 02:52:12;;;;;;;1.90;0.30;;;5.10;99.90;;;;;;5065068;28;20182;-81
2022/01/24 02:54:38;;;;;;;0.10;0.10;;;5.10;99.90;;;;;;5067346;28;20229;-80
2022/01/24 02:57:06;;;;;;;0.17;0.17;;;5.30;99.90;;;;;;5068855;28;20181;-80
2022/01/24 02:59:32;;;;;;;0.17;0.17;;;5.40;99.90;;;;;;5069277;28;20307;-80
2022/01/24 03:01:58;;;;;;;0.70;0.30;;;5.20;99.90;;;;;;5070303;28;20298;-80
2022/01/24 03:04:23;;;;;;;0.10;0.10;;;5.20;99.90;;;;;;5067839;28;20178;-80
2022/01/24 03:06:49;;;;;;;0.10;0.10;;;5.30;99.90;;;;;;5067765;28;20207;-80
2022/01/24 03:09:16;;;;;;;0.20;0.20;;;5.30;99.90;;;;;;5070072;28;21130;-80
2022/01/24 03:14:46;;;;;;;0.30;0.30;;;5.30;99.90;;;;;;5017914;28;20185;-81
2022/01/24 03:17:12;;;;;;;0.20;0.20;;;5.50;99.90;;;;;;5000377;28;20183;-80
2022/01/24 03:19:37;;;;;;;0.20;0.20;;;5.40;99.90;;;;;;5040286;28;20216;-80
2022/01/24 03:22:03;;;;;;;0.40;0.40;;;5.30;99.90;;;;;;5068003;28;20193;-80
2022/01/24 03:24:29;;;;;;;0.20;0.20;;;4.90;99.90;;;;;;5068319;28;20192;-80
2022/01/24 03:26:55;;;;;;;0.20;0.17;;;5.00;99.90;;;;;;5066309;28;20274;-82
2022/01/24 03:29:21;;;;;;;0.00;0.00;;;5.00;99.90;;;;;;5068632;28;20207;-80
2022/01/24 03:31:46;;;;;;;0.10;0.10;;;5.00;99.90;;;;;;5069040;28;20222;-80
2022/01/24 03:34:13;;;;;;;0.10;0.10;;;5.10;99.90;;;;;;5066475;28;20244;-81
2022/01/24 03:36:39;;;;;;;0.20;0.20;;;5.10;99.90;;;;;;5068074;28;20194;-80
2022/01/24 03:39:05;;;;;;;0.20;0.20;;;5.20;99.90;;;;;;5067893;28;20297;-80
2022/01/24 03:41:30;;;;;;;0.40;0.13;;;5.30;99.90;;;;;;5065484;28;20196;-80
2022/01/24 03:44:03;;;;;;;0.20;0.20;;;5.20;99.90;;;;;;5067870;28;20184;-80
2022/01/24 03:46:46;;;;;;;0.10;0.10;;;5.20;99.90;;;;;;5069255;28;20239;-80
2022/01/24 03:49:44;;;;;;;0.20;0.20;;;5.30;99.90;;;;;;5068359;28;20262;-80
2022/01/24 03:51:57;;;;;;;0.00;0.00;;;5.40;99.90;;;;;;5068478;28;20649;-80
2022/01/24 03:54:22;;;;;;;0.57;0.30;;;5.40;99.90;;;;;;5067474;28;20176;-80
2022/01/24 03:56:48;;;;;;;0.20;0.20;;;5.40;99.90;;;;;;5068045;28;20658;-80
2022/01/24 03:59:13;;;;;;;0.13;0.10;;;5.20;99.90;;;;;;5068780;28;20232;-80
2022/01/24 04:01:39;;;;;;;0.10;0.10;;;5.40;99.90;;;;;;5068778;28;20272;-80
2022/01/24 04:04:04;;;;;;;0.30;0.30;;;5.10;99.90;;;;;;5067924;28;20185;-80
2022/01/24 04:06:30;;;;;;;0.20;0.20;;;5.10;99.90;;;;;;5066666;28;20201;-80
2022/01/24 04:08:56;;;;;;;0.20;0.20;;;5.30;99.90;;;;;;5069944;28;20201;-80
2022/01/24 04:11:21;;;;;;;0.13;0.13;;;5.50;99.90;;;;;;5068070;28;20833;-80
2022/01/24 04:13:56;;;;;;;0.10;0.10;;;5.60;99.90;;;;;;5072181;28;20197;-80
2022/01/24 04:16:28;;;;;;;0.00;0.00;;;5.60;99.90;;;;;;5072978;28;20943;-79
2022/01/24 04:19:14;;;;;;;0.20;0.20;;;5.70;99.90;;;;;;5068865;28;20733;-80
2022/01/24 04:21:46;;;;;;;0.20;0.20;;;5.20;99.90;;;;;;5068468;28;20188;-80
2022/01/24 04:24:14;;;;;;;0.40;0.17;;;5.30;99.90;;;;;;5069439;28;20238;-80
2022/01/24 04:26:40;;;;;;;0.10;0.10;;;5.30;99.90;;;;;;5067292;28;20222;-80
2022/01/24 04:29:07;;;;;;;0.00;0.00;;;5.30;99.90;;;;;;5067219;28;20298;-80
2022/01/24 04:31:34;;;;;;;0.10;0.10;;;5.30;99.90;;;;;;5069667;28;20173;-80
2022/01/24 04:34:00;;;;;;;0.10;0.10;;;5.40;99.90;;;;;;5068660;28;20305;-80
2022/01/24 04:36:27;;;;;;;0.20;0.20;;;5.50;99.90;;;;;;5065176;28;20278;-80
2022/01/24 04:38:53;;;;;;;0.10;0.10;;;5.40;99.90;;;;;;5066040;28;20298;-81
2022/01/24 04:41:27;;;;;;;0.10;0.10;;;5.60;99.90;;;;;;5066233;28;20200;-80
2022/01/24 04:57:09;;;;;;;0.10;0.10;;;5.40;99.90;;;;;;5066592;28;20170;-80
2022/01/24 04:59:36;;;;;;;0.10;0.10;;;5.40;99.90;;;;;;5067947;28;20208;-80
2022/01/24 05:02:02;;;;;;;0.10;0.10;;;5.50;99.90;;;;;;5067192;28;20234;-80
2022/01/24 05:04:27;;;;;;;0.10;0.10;;;5.60;99.90;;;;;;5066971;28;20733;-80
2022/01/24 05:06:53;;;;;;;0.20;0.10;;;5.70;99.90;;;;;;5067756;28;20271;-80
2022/01/24 05:09:20;;;;;;;0.10;0.10;;;5.80;99.90;;;;;;5068966;28;20596;-79
2022/01/24 05:25:11;;;;;;;0.10;0.10;;;5.70;99.90;;;;;;5068305;28;20692;-80
2022/01/24 05:27:37;;;;;;;0.10;0.10;;;5.80;99.90;;;;;;5067651;28;20185;-80
2022/01/24 05:30:04;;;;;;;0.10;0.10;;;5.80;99.90;;;;;;5067153;28;20196;-80
2022/01/24 05:32:30;;;;;;;0.30;0.30;;;5.80;99.90;;;;;;5068711;28;20182;-80
2022/01/24 05:34:55;;;;;;;0.30;0.30;;;5.70;99.90;;;;;;5067016;28;20185;-80
2022/01/24 05:37:20;;;;;;;0.10;0.10;;;5.60;99.90;;;;;;5067327;28;20247;-80
2022/01/24 05:39:46;;;;;;;0.10;0.10;;;5.30;99.90;;;;;;5068361;28;20648;-80
2022/01/24 05:42:12;;;;;;;0.33;0.20;;;5.40;99.90;;;;;;5068575;28;20191;-80
2022/01/24 05:44:37;;;;;;;0.03;0.03;;;5.40;99.90;;;;;;5068089;28;20284;-80
2022/01/24 05:47:03;;;;;;;0.20;0.20;;;5.50;99.90;;;;;;5066845;28;20232;-80
2022/01/24 05:49:28;;;;;;;0.10;0.10;;;5.60;99.90;;;;;;5073421;28;20252;-80
2022/01/24 05:51:54;;;;;;;0.20;0.20;;;5.80;99.90;;;;;;5072131;28;20181;-81
2022/01/24 05:54:20;;;;;;;0.20;0.20;;;5.60;99.90;;;;;;5072561;28;20709;-80
2022/01/24 05:56:46;;;;;;;0.10;0.10;;;5.40;99.90;;;;;;5071971;28;20192;-80
2022/01/24 05:59:11;;;;;;;0.63;0.57;;;5.30;99.90;;;;;;5064449;28;20232;-80
2022/01/24 06:01:37;;;;;;;0.20;0.20;;;5.30;99.90;;;;;;5064044;28;20195;-80
2022/01/24 06:04:03;;;;;;;1.90;0.10;;;5.10;99.90;;;;;;5065032;28;20256;-80
2022/01/24 06:06:28;;;;;;;0.10;0.10;;;5.10;99.90;;;;;;5065341;28;20232;-79
2022/01/24 06:08:54;;;;;;;0.10;0.10;;;5.00;99.90;;;;;;5064965;28;20195;-80
2022/01/24 06:11:23;;;;;;;0.20;0.20;;;4.80;99.90;;;;;;5064536;28;20187;-80
2022/01/24 06:13:51;;;;;;;0.10;0.10;;;4.80;99.90;;;;;;5063153;28;20308;-79
2022/01/24 06:16:16;;;;;;;0.10;0.10;;;5.00;99.90;;;;;;5062906;28;20188;-82
2022/01/24 06:18:42;;;;;;;0.13;0.13;;;5.10;99.90;;;;;;5066099;28;20188;-82
2022/01/24 06:21:08;;;;;;;0.10;0.10;;;5.20;99.90;;;;;;5062693;28;20845;-82
2022/01/24 06:23:33;;;;;;;0.10;0.10;;;5.10;99.90;;;;;;5065607;28;20234;-78
2022/01/24 06:25:59;;;;;;;0.00;0.00;;;5.10;99.90;;;;;;5060637;28;20254;-78
2022/01/24 06:28:24;;;;;;;0.10;0.10;;;5.30;99.90;;;;;;5061597;28;20193;-80
2022/01/24 06:30:50;;;;;;;0.30;0.20;;;5.40;99.90;;;;;;5060471;28;20211;-79
2022/01/24 06:33:15;;;;;;;0.10;0.10;;;5.50;99.90;;;;;;5064505;28;20185;-78
2022/01/24 06:35:41;;;;;;;0.10;0.10;;;5.50;99.90;;;;;;5064917;28;20183;-78
2022/01/24 06:38:07;;;;;;;0.17;0.17;;;5.40;99.90;;;;;;5064003;28;20266;-78
2022/01/24 06:40:33;;;;;;;0.00;0.00;;;5.40;99.90;;;;;;5060287;28;20325;-79
2022/01/24 06:42:58;;;;;;;0.10;0.10;;;5.20;99.90;;;;;;5062454;28;20683;-79
2022/01/24 06:45:24;;;;;;;0.10;0.10;;;5.10;99.90;;;;;;5063414;28;20211;-79
2022/01/24 06:47:50;;;;;;;0.13;0.13;;;5.30;99.90;;;;;;5063058;28;20185;-79
2022/01/24 06:50:15;;;;;;;0.00;0.00;;;5.10;99.90;;;;;;5062593;28;20243;-79
2022/01/24 06:52:41;;;;;;;0.10;0.10;;;5.30;99.90;;;;;;5061001;28;20242;-79
2022/01/24 06:55:07;;;;;;;0.20;0.20;;;5.30;99.90;;;;;;5063524;28;20182;-81
2022/01/24 06:57:32;;;;;;;0.03;0.03;;;5.00;99.90;;;;;;5064740;28;20180;-79
2022/01/24 06:59:58;;;;;;;0.20;0.20;;;5.10;99.90;;;;;;5070184;28;20248;-79
2022/01/24 07:02:23;;;;;;;0.10;0.10;;;5.30;99.90;;;;;;5067911;28;20246;-79
2022/01/24 07:04:49;;;;;;;0.20;0.20;;;5.20;99.90;;;;;;5061878;28;20178;-79
2022/01/24 07:07:14;;;;;;;0.10;0.10;;;5.10;99.90;;;;;;5063400;28;20217;-79
2022/01/24 07:09:41;;;;;;;0.10;0.10;;;5.00;99.90;;;;;;5060583;28;20200;-79
2022/01/24 07:12:08;;;;;;;0.10;0.10;;;5.10;99.90;;;;;;5062067;28;20198;-77
2022/01/24 07:14:34;;;;;;;0.27;0.10;;;5.00;99.90;;;;;;5064029;28;20177;-77
2022/01/24 07:17:07;;;;;;;0.10;0.10;;;4.90;99.90;;;;;;5056869;28;20184;-77
2022/01/24 07:19:33;;;;;;;0.10;0.10;;;5.00;99.90;;;;;;5064184;28;20228;-77
2022/01/24 07:22:04;;;;;;;0.10;0.10;;;4.80;99.90;;;;;;5063975;28;20266;-77
2022/01/24 07:24:29;;;;;;;0.20;0.10;;;4.80;99.90;;;;;;5063050;28;20192;-77
2022/01/24 07:26:55;;;;;;;0.20;0.20;;;5.10;99.90;;;;;;5062813;28;20208;-77
2022/01/24 07:29:21;;;;;;;0.10;0.10;;;5.10;99.90;;;;;;5061521;28;20192;-77
2022/01/24 07:31:47;;;;;;;0.17;0.17;;;5.00;99.90;;;;;;5061243;28;20643;-78
2022/01/24 07:34:13;;;;;;;0.20;0.20;;;5.20;99.90;;;;;;5063421;28;20270;-77
2022/01/24 07:36:39;;;;;;;0.10;0.10;;;5.20;99.90;;;;;;5064979;28;20230;-78
2022/01/24 07:39:05;;;;;;;0.20;0.20;;;5.20;99.90;;;;;;5065156;28;20232;-78
2022/01/24 07:41:33;;;;;;;0.13;0.13;;;5.10;99.90;;;;;;5061104;28;20272;-79
2022/01/24 07:43:59;;;;;;;0.23;0.23;;;5.10;99.90;;;;;;5063631;28;20181;-77
2022/01/24 07:46:25;;;;;;;0.37;0.30;;;5.20;99.90;;;;;;5064063;28;20212;-78
2022/01/24 07:48:50;;;;;;;0.17;0.17;;;5.30;99.90;;;;;;5064097;28;20212;-77
2022/01/24 07:51:16;;;;;;;0.30;0.30;;;5.10;99.90;;;;;;5064768;28;20195;-78
2022/01/24 07:53:43;;;;;;;0.10;0.10;;;5.20;99.90;;;;;;5066928;28;20181;-78
2022/01/24 07:56:09;;;;;;;0.10;0.10;;;5.30;99.90;;;;;;5065849;28;20312;-78
2022/01/24 07:58:35;;;;;;;0.20;0.20;;;5.40;99.90;;;;;;5064966;28;21077;-78
2022/01/24 08:01:00;;;;;;;0.10;0.10;;;5.50;99.90;;;;;;5062778;28;20200;-78
2022/01/24 08:03:26;;;;;;;0.20;0.20;;;5.40;99.90;;;;;;5062065;28;20202;-79
2022/01/24 08:05:52;;;;;;;0.27;0.27;;;5.50;99.90;;;;;;5062742;28;20293;-79
2022/01/24 08:08:18;;;;;;;0.13;0.13;;;5.10;99.90;;;;;;5059972;28;20512;-78
2022/01/24 08:10:44;;;;;;;0.40;0.20;;;5.10;99.90;;;;;;5066151;28;20194;-79
2022/01/24 08:13:09;;;;;;;0.20;0.20;;;5.30;99.90;;;;;;5063155;28;20209;-78
2022/01/24 08:15:35;;;;;;;0.20;0.20;;;5.50;99.90;;;;;;5062395;28;20187;-78
2022/01/24 08:18:00;;;;;;;0.10;0.10;;;5.70;99.90;;;;;;5066600;28;20265;-78
2022/01/24 08:20:26;;;;;;;0.17;0.17;;;5.60;99.90;;;;;;5067262;28;20208;-78
2022/01/24 08:22:52;;;;;;;0.27;0.27;;;5.50;99.90;;;;;;5059048;28;20647;-77
2022/01/24 08:25:18;;;;;;;0.13;0.13;;;5.50;99.90;;;;;;5065289;28;20189;-80
2022/01/24 08:27:44;;;;;;;0.10;0.10;;;5.60;99.90;;;;;;5062291;28;20217;-80
2022/01/24 08:30:12;;;;;;;0.10;0.10;;;5.70;99.90;;;;;;5061353;28;20238;-79
2022/01/24 08:32:39;;;;;;;0.10;0.10;;;5.70;99.90;;;;;;5065525;28;20173;-79
2022/01/24 08:35:05;;;;;;;0.00;0.00;;;5.60;99.90;;;;;;5063712;28;20180;-79
2022/01/24 08:37:31;;;;;;;0.30;0.30;;;5.70;99.90;;;;;;5066350;28;20885;-79
2022/01/24 08:39:58;;;;;;;0.30;0.30;;;5.90;99.90;;;;;;5066468;28;20254;-79
2022/01/24 08:47:28;;;;;;;0.10;0.10;;;5.90;99.90;;;;;;5064569;28;20204;-79
2022/01/24 08:49:55;;;;;;;0.10;0.10;;;5.90;99.90;;;;;;5065866;28;20907;-80
2022/01/24 08:52:20;;;;;;;0.10;0.10;;;6.00;99.90;;;;;;5064428;28;20249;-79
2022/01/24 08:54:47;;;;;;;0.10;0.10;;;6.10;99.90;;;;;;5061900;28;20899;-78
2022/01/24 08:57:13;;;;;;;0.17;0.17;;;6.10;99.90;;;;;;5064843;28;20733;-79
2022/01/24 08:59:39;;;;;;;0.23;0.23;;;6.20;99.90;;;;;;5066602;28;20724;-80
2022/01/24 09:02:05;;;;;;;0.10;0.10;;;5.80;99.90;;;;;;5064304;28;20185;-79
2022/01/24 09:04:31;;;;;;;1.00;0.40;;;5.70;99.90;;;;;;5063167;28;20185;-80
2022/01/24 09:07:00;;;;;;;0.90;0.77;;;5.40;99.90;;;;;;5060870;28;20441;-80
2022/01/24 09:09:26;;;;;;;0.30;0.30;;;5.60;99.90;;;;;;5064060;28;20200;-79
2022/01/24 09:11:52;;;;;;;0.40;0.40;;;5.60;99.90;;;;;;5067311;28;20532;-81
2022/01/24 09:14:18;;;;;;;0.17;0.17;;;5.80;99.90;;;;;;5066305;28;20169;-81
2022/01/24 09:16:43;;;;;;;0.23;0.23;;;5.60;99.90;;;;;;5064900;28;20190;-80
2022/01/24 09:19:09;;;;;;;0.20;0.20;;;5.60;99.90;;;;;;5066365;28;20236;-80
2022/01/24 09:21:35;;;;;;;0.20;0.20;;;5.60;99.90;;;;;;5065596;28;20197;-80
2022/01/24 09:24:04;;;;;;;0.20;0.20;;;5.70;99.90;;;;;;5061738;28;20189;-81
2022/01/24 09:26:30;;;;;;;0.40;0.40;;;5.90;99.90;;;;;;5059742;28;20196;-89
2022/01/24 09:28:56;;;;;;;0.10;0.10;;;5.80;99.90;;;;;;5063431;28;20272;-80
2022/01/24 09:31:22;;;;;;;0.37;0.30;;;5.80;99.90;;;;;;5060357;28;20199;-82
2022/01/24 09:33:49;;;;;;;0.20;0.20;;;5.60;99.90;;;;;;5064706;28;20179;-82
2022/01/24 09:36:15;;;;;;;0.20;0.13;;;5.80;99.90;;;;;;5066078;28;20192;-82
2022/01/24 09:38:40;;;;;;;0.20;0.20;;;5.90;99.90;;;;;;5065682;28;20203;-81
2022/01/24 09:41:07;;;;;;;0.20;0.10;;;5.80;99.90;;;;;;5066819;28;20181;-80
2022/01/24 09:43:33;;;;;;;0.20;0.20;;;5.90;99.90;;;;;;5062305;28;20231;-79
2022/01/24 09:45:59;;;;;;;2.07;0.93;;;6.00;99.90;;;;;;5056513;28;20204;-78
2022/01/24 09:48:26;;;;;;;0.53;0.53;;;5.60;99.90;;;;;;5056246;28;20218;-78
2022/01/24 09:50:53;;;;;;;0.20;0.20;;;5.40;99.90;;;;;;5061015;28;20595;-78
2022/01/24 09:53:20;;;;;;;0.20;0.20;;;5.30;99.90;;;;;;5063247;28;20676;-81
2022/01/24 09:55:46;;;;;;;0.10;0.10;;;5.40;99.90;;;;;;5064393;28;20181;-78
2022/01/24 09:58:12;;;;;;;0.97;0.40;;;5.70;99.90;;;;;;5061912;28;20188;-83
2022/01/24 10:00:38;;;;;;;0.20;0.20;;;5.70;99.90;;;;;;5061361;28;20349;-79
2022/01/24 10:03:04;;;;;;;1.57;0.40;;;5.90;99.90;;;;;;5061506;28;20228;-80
2022/01/24 10:05:37;;;;;;;0.20;0.20;;;6.10;99.90;;;;;;5064145;28;21034;-79
2022/01/24 10:08:05;;;;;;;0.10;0.10;;;5.80;99.90;;;;;;5062023;28;20176;-79
2022/01/24 10:10:34;;;;;;;0.20;0.10;;;6.10;99.90;;;;;;5060717;28;20299;-79
2022/01/24 10:16:25;;;;;;;0.30;0.30;;;6.10;99.90;;;;;;5065006;28;20195;-81
2022/01/24 10:19:10;;;;;;;0.53;0.33;;;6.00;99.90;;;;;;5064201;28;20183;-79
2022/01/24 10:22:00;;;;;;;0.30;0.17;;;5.80;99.90;;;;;;5065889;28;20177;-79
2022/01/24 10:24:43;;;;;;;0.10;0.10;;;6.10;99.90;;;;;;5065608;28;20173;-79
2022/01/24 10:27:15;;;;;;;0.20;0.20;;;6.20;99.90;;;;;;5063469;28;20208;-79
2022/01/24 10:29:51;;;;;;;0.47;0.47;;;6.10;99.90;;;;;;5064040;28;20194;-79
2022/01/24 10:32:35;;;;;;;0.10;0.10;;;6.10;99.90;;;;;;5065464;28;20192;-80
2022/01/24 10:35:26;;;;;;;0.10;0.10;;;6.40;99.90;;;;;;5064024;28;20169;-79
2022/01/24 10:38:24;;;;;;;0.40;0.40;;;6.40;99.90;;;;;;5064828;28;20169;-79
2022/01/24 10:40:55;;;;;;;0.33;0.20;;;6.20;99.90;;;;;;5063893;28;20211;-78
2022/01/24 10:43:27;;;;;;;0.20;0.20;;;6.50;99.90;;;;;;5071365;28;20177;-79
2022/01/24 10:45:55;;;;;;;0.07;0.07;;;6.70;99.90;;;;;;5067114;28;20207;-80
2022/01/24 10:48:27;;;;;;;0.20;0.20;;;6.70;99.90;;;;;;5070053;28;20177;-80
2022/01/24 10:51:11;;;;;;;2.37;0.83;;;6.80;99.90;;;;;;5067535;28;20197;-79
2022/01/24 10:53:44;;;;;;;0.33;0.33;;;7.00;99.90;;;;;;5068198;28;20175;-80
2022/01/24 10:56:33;;;;;;;0.40;0.10;;;7.00;99.90;;;;;;5066112;28;20185;-77
2022/01/24 10:59:11;;;;;;;0.43;0.20;;;7.10;99.90;;;;;;5069903;28;20212;-78
2022/01/24 11:01:37;;;;;;;0.10;0.10;;;7.20;99.90;;;;;;5066658;28;20200;-79
2022/01/24 11:04:06;;;;;;;0.20;0.20;;;7.30;99.90;;;;;;5067232;28;20235;-80
2022/01/24 11:06:38;;;;;;;0.40;0.40;;;7.20;99.90;;;;;;5062990;28;20567;-79
2022/01/24 11:09:19;;;;;;;1.90;1.60;;;7.20;99.90;;;;;;5063851;28;20201;-81
2022/01/24 11:11:46;;;;;;;2.63;1.30;;;7.30;99.90;;;;;;5062474;28;20185;-79
2022/01/24 11:14:16;;;;;;;0.10;0.10;;;7.50;99.90;;;;;;5064698;28;20171;-79
2022/01/24 11:16:42;;;;;;;0.10;0.10;;;7.50;99.90;;;;;;5067424;28;20173;-80
2022/01/24 11:19:16;;;;;;;0.20;0.20;;;7.40;99.90;;;;;;5066405;28;20197;-79
2022/01/24 11:21:44;;;;;;;0.03;0.03;;;7.40;99.90;;;;;;5062249;28;20246;-79
2022/01/24 11:24:10;;;;;;;0.00;0.00;;;7.50;99.90;;;;;;5063086;28;20184;-79
2022/01/24 11:26:36;;;;;;;0.20;0.20;;;7.60;99.90;;;;;;5066282;28;20207;-79
2022/01/24 11:29:04;;;;;;;0.30;0.30;;;7.70;99.90;;;;;;5068233;28;20193;-79
2022/01/24 11:31:43;;;;;;;0.30;0.30;;;7.70;99.90;;;;;;5065774;28;20542;-79
2022/01/24 11:34:20;;;;;;;0.10;0.10;;;7.60;99.90;;;;;;5065874;28;20250;-80
2022/01/24 11:36:45;;;;;;;0.20;0.20;;;7.50;99.90;;;;;;5067758;28;20177;-80
2022/01/24 11:39:11;;;;;;;0.30;0.30;;;7.60;99.90;;;;;;5066974;28;20201;-79
2022/01/24 11:41:39;;;;;;;0.20;0.20;;;7.50;99.90;;;;;;5065860;28;20194;-79
2022/01/24 11:44:10;;;;;;;0.30;0.30;;;7.40;99.90;;;;;;5063494;28;20192;-79
2022/01/24 11:46:47;;;;;;;0.60;0.40;;;7.30;99.90;;;;;;5063057;28;20225;-78
2022/01/24 11:49:28;;;;;;;0.20;0.20;;;7.40;99.90;;;;;;5066841;28;20566;-79
2022/01/24 11:52:10;;;;;;;0.20;0.20;;;7.30;99.90;;;;;;5065662;28;20173;-80
2022/01/24 11:54:48;;;;;;;1.10;0.70;;;6.80;99.90;;;;;;5066312;28;20181;-79
2022/01/24 11:57:24;;;;;;;0.10;0.10;;;7.00;99.90;;;;;;5063593;28;20181;-79
2022/01/24 12:00:05;;;;;;;0.57;0.17;;;6.80;99.90;;;;;;5062881;28;20212;-79
2022/01/24 12:02:44;;;;;;;0.20;0.20;;;6.80;99.90;;;;;;5063999;28;20705;-80
2022/01/24 12:05:11;;;;;;;0.40;0.40;;;6.30;99.90;;;;;;5064432;28;20196;-79
2022/01/24 12:07:52;;;;;;;0.20;0.20;;;6.10;99.90;;;;;;5063116;28;20254;-78
2022/01/24 12:10:23;;;;;;;4.23;1.60;;;6.20;99.90;;;;;;5063558;28;21096;-78
2022/01/24 12:13:19;;;;;;;1.90;0.40;;;6.50;99.90;;;;;;5065179;28;20209;-78
2022/01/24 12:15:48;;;;;;;0.10;0.10;;;6.80;99.90;;;;;;5059899;28;20185;-78
2022/01/24 12:18:23;;;;;;;0.43;0.23;;;6.80;99.90;;;;;;5064807;28;20271;-78
2022/01/24 12:20:57;;;;;;;0.10;0.10;;;6.60;99.90;;;;;;5061572;28;20711;-78
2022/01/24 12:23:27;;;;;;;0.40;0.40;;;6.80;99.90;;;;;;5066534;28;20712;-80
2022/01/24 12:26:07;;;;;;;0.10;0.10;;;6.60;99.90;;;;;;5066349;28;20192;-78
2022/01/24 12:28:41;;;;;;;0.23;0.23;;;6.90;99.90;;;;;;5064359;28;20176;-78
2022/01/24 12:31:26;;;;;;;0.20;0.20;;;7.10;99.90;;;;;;5062001;28;20748;-78
2022/01/24 12:33:55;;;;;;;0.20;0.20;;;7.30;99.90;;;;;;5066903;28;20786;-78
2022/01/24 12:36:47;;;;;;;0.20;0.20;;;7.20;99.90;;;;;;5065039;28;20193;-78
2022/01/24 12:39:33;;;;;;;0.47;0.47;;;7.00;99.90;;;;;;5068163;28;20254;-80
2022/01/24 12:42:11;;;;;;;0.30;0.30;;;6.40;99.90;;;;;;5064718;28;20657;-78
2022/01/24 12:47:15;;;;;;;0.17;0.17;;;6.00;99.90;;;;;;5060327;28;20214;-79
2022/01/24 12:49:42;;;;;;;0.20;0.20;;;6.10;99.90;;;;;;5061379;28;20746;-78
2022/01/24 12:52:14;;;;;;;0.47;0.47;;;6.30;99.90;;;;;;5064291;28;20214;-82
2022/01/24 12:54:48;;;;;;;0.27;0.27;;;6.20;99.90;;;;;;5066058;28;20174;-78
2022/01/24 12:57:16;;;;;;;0.33;0.33;;;6.10;99.90;;;;;;5063831;28;20185;-78
2022/01/24 12:59:54;;;;;;;1.80;1.70;;;6.50;99.90;;;;;;5064578;28;20262;-78
2022/01/24 13:02:28;;;;;;;0.10;0.10;;;6.20;99.90;;;;;;5065177;28;20216;-78
2022/01/24 13:05:03;;;;;;;0.10;0.10;;;6.50;99.90;;;;;;5063753;28;20177;-78
2022/01/24 13:07:31;;;;;;;0.37;0.37;;;6.40;99.90;;;;;;5065839;28;20218;-78
2022/01/24 13:10:04;;;;;;;0.30;0.30;;;6.40;99.90;;;;;;5064309;28;20207;-79
2022/01/24 13:12:30;;;;;;;0.40;0.40;;;6.50;99.90;;;;;;5063724;28;20230;-80
2022/01/24 13:14:59;;;;;;;0.10;0.10;;;6.30;99.90;;;;;;5066225;28;20185;-78
2022/01/24 13:23:06;;;;;;;1.13;0.60;;;6.20;99.90;;;;;;5061900;28;20188;-78
2022/01/24 13:25:36;;;;;;;0.30;0.30;;;6.20;99.90;;;;;;5064889;28;20262;-78
2022/01/24 13:28:13;;;;;;;0.23;0.23;;;6.60;99.90;;;;;;5061337;28;20181;-78
2022/01/24 13:30:49;;;;;;;0.20;0.20;;;6.30;99.90;;;;;;5061016;28;20204;-78
2022/01/24 13:33:24;;;;;;;0.10;0.10;;;6.30;99.90;;;;;;5063502;28;20232;-78
2022/01/24 13:36:00;;;;;;;1.13;0.13;;;6.60;99.90;;;;;;5066092;28;20223;-78
2022/01/24 13:38:29;;;;;;;0.47;0.47;;;6.70;99.90;;;;;;5071323;28;20176;-78
2022/01/24 13:41:23;;;;;;;0.20;0.20;;;6.90;99.90;;;;;;5074982;28;20263;-78
2022/01/24 13:43:56;;;;;;;0.23;0.23;;;7.00;99.90;;;;;;5070266;28;20192;-78
2022/01/24 13:46:26;;;;;;;0.30;0.30;;;7.00;99.90;;;;;;5063698;28;20203;-78
2022/01/24 13:49:06;;;;;;;0.20;0.20;;;7.20;99.90;;;;;;5062872;28;20242;-79
2022/01/24 13:51:51;;;;;;;0.30;0.30;;;7.30;99.90;;;;;;5065473;28;20177;-79
2022/01/24 13:54:28;;;;;;;0.10;0.10;;;7.40;99.90;;;;;;5068825;28;20248;-80
2022/01/24 13:56:58;;;;;;;0.23;0.23;;;7.50;99.90;;;;;;5071862;28;20181;-79
2022/01/24 13:59:27;;;;;;;0.40;0.40;;;7.60;99.90;;;;;;5062892;28;20247;-78
2022/01/24 14:01:58;;;;;;;0.20;0.17;;;7.70;99.90;;;;;;5064170;28;20189;-78
2022/01/24 14:04:30;;;;;;;0.07;0.07;;;7.60;99.90;;;;;;5064628;28;20178;-80
2022/01/24 14:06:59;;;;;;;0.20;0.20;;;7.60;99.90;;;;;;5059702;28;20674;-79
2022/01/24 14:09:35;;;;;;;0.10;0.10;;;7.40;99.90;;;;;;5063079;28;20200;-81
2022/01/24 14:12:03;;;;;;;0.10;0.10;;;7.40;99.90;;;;;;5062122;28;20177;-78
2022/01/24 14:14:58;;;;;;;0.20;0.20;;;7.50;99.90;;;;;;5061518;28;20258;-78
2022/01/24 14:19:57;;;;;;;0.90;0.20;;;7.00;99.90;;;;;;5062833;28;20206;-78
2022/01/24 14:22:24;;;;;;;0.40;0.40;;;6.80;99.90;;;;;;5065916;28;20195;-77
2022/01/24 14:24:57;;;;;;;1.00;0.70;;;6.40;99.90;;;;;;5063496;28;20680;-77
2022/01/24 14:27:37;;;;;;;0.00;0.00;;;6.20;99.90;;;;;;5064495;28;20189;-78
2022/01/24 14:30:12;;;;;;;0.10;0.10;;;6.50;99.90;;;;;;5071352;28;20685;-78
2022/01/24 14:32:58;;;;;;;0.10;0.10;;;6.50;99.90;;;;;;5062851;28;21063;-78
2022/01/24 14:35:24;;;;;;;0.20;0.20;;;6.60;99.90;;;;;;5063178;28;20188;-78
2022/01/24 14:37:52;;;;;;;0.53;0.50;;;6.70;99.90;;;;;;5061532;28;20681;-78
2022/01/24 14:40:32;;;;;;;0.30;0.30;;;6.40;99.90;;;;;;5062126;28;20197;-78
2022/01/24 14:45:43;;;;;;;0.20;0.20;;;6.80;99.90;;;;;;5062486;28;20339;-77
2022/01/24 14:48:09;;;;;;;0.10;0.10;;;6.20;99.90;;;;;;5062992;28;20269;-79
2022/01/24 14:50:36;;;;;;;0.10;0.10;;;6.00;99.90;;;;;;5063498;28;20371;-78
2022/01/24 14:53:04;;;;;;;0.10;0.10;;;6.10;99.90;;;;;;5064674;28;20177;-78
2022/01/24 14:55:30;;;;;;;0.17;0.17;;;6.00;99.90;;;;;;5063612;28;20556;-78
2022/01/24 14:57:56;;;;;;;0.43;0.43;;;5.80;99.90;;;;;;5061851;28;20176;-77
2022/01/24 15:00:23;;;;;;;0.37;0.37;;;5.80;99.90;;;;;;5059910;28;20215;-78
2022/01/24 15:02:49;;;;;;;0.43;0.40;;;5.80;99.90;;;;;;5061248;28;20272;-77